« Back
NWS Peachtree City, Ga » Text Product » ATL Terminal Aerodrome Forecast


Printer-friendly Version
Current Version              Previous Versions:   1  2  3  4  5  6  7  8  9  

Terminal Aerodrome Forecast

637
FTUS42 KFFC 220520
TAFATL
TAF
KATL 220520Z 2206/2312 07006KT P6SM FEW250
     FM221500 09008KT P6SM FEW030 SCT250
     FM222000 09010KT P6SM BKN040
     FM230200 10008KT P6SM BKN027
     FM230600 10009KT P6SM OVC016
     FM231000 08010KT 5SM -RA BR OVC008=



USA.gov is the U.S. government's official web portal to all federal, state and local government web resources and services.